createdAt,value
2022-08-21T00:01:59.885Z,145.30719
2022-08-21T00:07:00.894Z,145.30719
2022-08-21T00:12:01.877Z,144.65147
2022-08-21T00:17:02.759Z,144.65147
2022-08-21T00:22:03.675Z,145.30719
2022-08-21T00:27:04.623Z,144.65147
2022-08-21T00:32:05.504Z,144.65147
2022-08-21T00:37:06.484Z,145.30719
2022-08-21T00:42:07.400Z,145.96721
2022-08-21T00:47:08.321Z,145.96721
2022-08-21T00:52:09.239Z,146.63158
2022-08-21T00:57:10.164Z,146.63158
2022-08-21T01:07:11.545Z,147.30033
2022-08-21T01:12:12.559Z,147.30033
2022-08-21T01:17:13.809Z,147.30033
2022-08-21T01:22:15.094Z,147.30033
2022-08-21T01:27:16.071Z,147.30033
2022-08-21T01:32:17.109Z,147.97351
2022-08-21T01:37:18.022Z,148.65116
2022-08-21T01:42:18.913Z,149.33333
2022-08-21T01:47:19.828Z,149.33333
2022-08-21T01:52:20.767Z,149.33333
2022-08-21T01:57:21.671Z,149.33333
2022-08-21T02:02:24.606Z,149.33333
2022-08-21T02:07:25.556Z,150.02007
2022-08-21T02:12:26.449Z,150.02007
2022-08-21T02:17:27.366Z,150.02007
2022-08-21T02:22:28.334Z,150.02007
2022-08-21T02:27:29.226Z,150.71141
2022-08-21T02:32:30.179Z,151.40741
2022-08-21T02:37:31.097Z,150.71141
2022-08-21T02:42:31.991Z,150.71141
2022-08-21T02:47:32.893Z,151.40741
2022-08-21T02:52:33.801Z,151.40741
2022-08-21T02:57:34.744Z,151.40741
2022-08-21T03:07:36.171Z,151.40741
2022-08-21T03:12:37.184Z,151.40741
2022-08-21T03:17:38.095Z,152.10811
2022-08-21T03:22:39.333Z,152.10811
2022-08-21T03:27:40.337Z,152.81356
2022-08-21T03:32:44.239Z,152.81356
2022-08-21T03:37:45.176Z,153.52381
2022-08-21T03:42:46.172Z,153.52381
2022-08-21T03:47:47.103Z,154.23891
2022-08-21T03:52:48.017Z,153.52381
2022-08-21T03:57:49.272Z,154.23891
2022-08-21T04:02:50.329Z,153.52381
2022-08-21T04:07:51.337Z,153.52381
2022-08-21T04:12:52.336Z,154.23891
2022-08-21T04:17:53.266Z,120.5043
2022-08-21T04:22:54.189Z,138.93671
2022-08-21T04:27:55.226Z,145.96721
2022-08-21T04:32:56.138Z,148.65116
2022-08-21T04:37:57.110Z,150.71141
2022-08-21T04:42:58.155Z,152.10811
2022-08-21T04:47:59.268Z,153.52381
2022-08-21T04:53:00.336Z,153.52381
2022-08-21T04:58:01.368Z,153.52381
2022-08-21T05:03:02.445Z,153.52381
2022-08-21T05:08:03.406Z,154.23891
2022-08-21T05:13:04.424Z,154.23891
2022-08-21T05:18:05.504Z,154.23891
2022-08-21T05:23:06.574Z,154.23891
2022-08-21T05:28:07.601Z,154.23891
2022-08-21T05:33:09.025Z,154.23891
2022-08-21T05:38:17.758Z,154.23891
2022-08-21T05:43:19.334Z,154.23891
2022-08-21T05:48:20.374Z,153.52381
2022-08-21T05:53:21.406Z,153.52381
2022-08-21T05:58:22.339Z,153.52381
2022-08-21T06:03:23.309Z,153.52381
2022-08-21T06:08:24.677Z,154.23891
2022-08-21T06:13:25.624Z,154.23891
2022-08-21T06:18:26.568Z,154.23891
2022-08-21T06:23:33.096Z,154.23891
2022-08-21T06:28:34.557Z,153.52381
2022-08-21T06:33:35.477Z,153.52381
2022-08-21T06:38:36.478Z,153.52381
2022-08-21T06:43:39.850Z,152.81356
2022-08-21T06:48:41.064Z,152.81356
2022-08-21T06:53:41.959Z,152.81356
2022-08-21T06:58:42.964Z,152.81356
2022-08-21T07:03:43.865Z,152.10811
2022-08-21T07:08:44.805Z,150.71141
2022-08-21T07:13:45.708Z,150.71141
2022-08-21T07:18:46.637Z,150.71141
2022-08-21T07:23:47.561Z,150.71141
2022-08-21T07:28:48.483Z,150.71141
2022-08-21T07:33:49.368Z,150.71141
2022-08-21T07:38:52.520Z,151.40741
2022-08-21T07:43:53.889Z,150.71141
2022-08-21T07:48:54.804Z,150.71141
2022-08-21T07:58:56.227Z,150.02007
2022-08-21T08:03:57.130Z,149.33333
2022-08-21T08:08:58.267Z,150.02007
2022-08-21T08:18:59.701Z,149.33333
2022-08-21T08:24:00.615Z,148.65116
2022-08-21T08:29:20.546Z,147.97351
2022-08-21T08:34:25.398Z,147.97351
2022-08-21T08:39:29.707Z,150.02007
2022-08-21T08:44:30.975Z,154.23891
2022-08-21T08:49:31.897Z,152.10811
2022-08-21T08:54:32.827Z,150.71141
2022-08-21T08:59:33.800Z,150.71141
2022-08-21T09:04:34.760Z,151.40741
2022-08-21T09:09:35.659Z,150.71141
2022-08-21T09:14:36.691Z,150.71141
2022-08-21T09:19:37.591Z,150.02007
2022-08-21T09:24:38.490Z,151.40741
2022-08-21T09:29:39.472Z,150.71141
2022-08-21T09:34:40.417Z,150.02007
2022-08-21T09:39:45.591Z,150.02007
2022-08-21T09:44:49.275Z,149.33333
2022-08-21T09:49:50.208Z,147.97351
2022-08-21T09:54:51.183Z,146.63158
2022-08-21T09:59:52.160Z,146.63158
2022-08-21T10:04:53.108Z,145.96721
2022-08-21T10:09:54.034Z,147.30033
2022-08-21T10:14:54.917Z,146.63158
2022-08-21T10:19:55.828Z,145.96721
2022-08-21T10:24:56.789Z,145.30719
2022-08-21T10:29:57.722Z,146.63158
2022-08-21T10:34:58.608Z,145.30719
2022-08-21T10:39:59.600Z,143.35275
2022-08-21T10:50:01.019Z,144.65147
2022-08-21T10:55:02.111Z,145.96721
2022-08-21T11:00:04.333Z,145.30719
2022-08-21T11:05:05.322Z,148.65116
2022-08-21T11:10:06.255Z,145.96721
2022-08-21T11:20:09.930Z,145.30719
2022-08-21T11:30:11.338Z,145.30719
2022-08-21T11:35:12.249Z,147.30033
2022-08-21T11:40:13.270Z,144.0
2022-08-21T11:45:14.242Z,144.65147
2022-08-21T11:50:29.691Z,147.97351
2022-08-21T11:55:36.913Z,144.65147
2022-08-21T12:00:37.854Z,145.30719
2022-08-21T12:05:38.787Z,144.65147
2022-08-21T12:10:39.666Z,144.65147
2022-08-21T12:15:40.588Z,144.0
2022-08-21T12:25:42.164Z,143.35275
2022-08-21T12:30:43.233Z,141.4359
2022-08-21T12:35:44.214Z,142.07074
2022-08-21T12:40:45.153Z,141.4359
2022-08-21T12:45:46.054Z,145.30719
2022-08-21T12:50:47.004Z,142.07074
2022-08-21T12:55:49.951Z,140.80511
2022-08-21T13:00:50.963Z,137.71069
2022-08-21T13:05:51.900Z,142.07074
2022-08-21T13:10:52.813Z,139.55556
2022-08-21T13:15:53.738Z,138.32177
2022-08-21T13:20:54.633Z,136.5
2022-08-21T13:25:55.556Z,135.90031
2022-08-21T13:30:56.526Z,132.95706
2022-08-21T13:35:57.437Z,132.3792
2022-08-21T13:40:58.390Z,132.95706
2022-08-21T13:45:59.298Z,135.90031
2022-08-21T13:51:00.229Z,132.3792
2022-08-21T13:56:01.234Z,134.71207
2022-08-21T14:01:05.019Z,134.12346
2022-08-21T14:06:07.602Z,133.53846
2022-08-21T14:11:08.502Z,135.30435
2022-08-21T14:16:09.492Z,134.71207
2022-08-21T14:21:10.386Z,134.12346
2022-08-21T14:26:11.296Z,135.30435
2022-08-21T14:31:12.280Z,135.90031
2022-08-21T14:36:13.758Z,135.90031
2022-08-21T14:41:14.718Z,135.90031
2022-08-21T14:46:15.691Z,137.71069
2022-08-21T14:51:16.587Z,135.90031
2022-08-21T14:56:19.533Z,137.10345
2022-08-21T15:01:21.760Z,137.71069
2022-08-21T15:06:22.668Z,137.71069
2022-08-21T15:11:42.037Z,137.71069
2022-08-21T15:16:43.961Z,137.10345
2022-08-21T15:21:44.924Z,138.32177
2022-08-21T15:26:45.827Z,138.93671
2022-08-21T15:31:46.787Z,139.55556
2022-08-21T15:36:47.719Z,139.55556
2022-08-21T15:41:48.720Z,140.80511
2022-08-21T15:46:49.650Z,140.80511
2022-08-21T15:51:50.621Z,141.4359
2022-08-21T15:56:51.576Z,141.4359
2022-08-21T16:01:52.711Z,142.07074
2022-08-21T16:06:57.707Z,142.07074
2022-08-21T16:12:02.869Z,142.70968
2022-08-21T16:17:03.864Z,142.70968
2022-08-21T16:22:04.834Z,143.35275
2022-08-21T16:27:07.999Z,143.35275
2022-08-21T16:32:09.489Z,143.35275
2022-08-21T16:37:10.635Z,143.35275
2022-08-21T16:42:11.648Z,144.0
2022-08-21T16:47:12.672Z,144.0
2022-08-21T16:52:28.288Z,144.0
2022-08-21T16:57:29.287Z,144.0
2022-08-21T17:02:30.278Z,144.0
2022-08-21T17:07:35.174Z,144.0
2022-08-21T17:12:37.799Z,144.0
2022-08-21T17:17:38.777Z,144.65147
2022-08-21T17:22:39.692Z,144.65147
2022-08-21T17:27:40.583Z,145.30719
2022-08-21T17:32:41.566Z,145.30719
2022-08-21T17:37:42.499Z,145.96721
2022-08-21T17:42:43.404Z,145.96721
2022-08-21T17:47:44.353Z,145.96721
2022-08-21T17:52:45.286Z,146.63158
2022-08-21T17:57:46.246Z,146.63158
2022-08-21T18:02:47.217Z,146.63158
2022-08-21T18:07:48.144Z,147.30033
2022-08-21T18:12:49.063Z,147.30033
2022-08-21T18:17:50.020Z,147.97351
2022-08-21T18:22:50.925Z,148.65116
2022-08-21T18:27:51.851Z,148.65116
2022-08-21T18:32:52.843Z,148.65116
2022-08-21T18:37:53.819Z,148.65116
2022-08-21T18:42:55.817Z,149.33333
2022-08-21T18:47:57.053Z,149.33333
2022-08-21T18:52:58.007Z,149.33333
2022-08-21T18:57:58.899Z,148.65116
2022-08-21T19:03:00.100Z,147.97351
2022-08-21T19:08:01.104Z,149.33333
2022-08-21T19:13:02.259Z,149.33333
2022-08-21T19:18:03.978Z,149.33333
2022-08-21T19:23:05.239Z,150.02007
2022-08-21T19:28:11.298Z,150.71141
2022-08-21T19:33:12.648Z,150.71141
2022-08-21T19:38:24.567Z,150.02007
2022-08-21T19:43:25.832Z,150.71141
2022-08-21T19:48:30.287Z,150.71141
2022-08-21T19:53:31.269Z,150.71141
2022-08-21T19:58:32.190Z,151.40741
2022-08-21T20:03:33.200Z,151.40741
2022-08-21T20:08:35.796Z,151.40741
2022-08-21T20:13:37.766Z,151.40741
2022-08-21T20:18:44.223Z,150.71141
2022-08-21T20:28:45.627Z,150.71141
2022-08-21T20:33:46.612Z,150.02007
2022-08-21T20:38:50.611Z,150.02007
2022-08-21T20:43:51.593Z,150.02007
2022-08-21T20:48:54.621Z,150.02007
2022-08-21T20:53:55.548Z,150.02007
2022-08-21T20:58:58.645Z,150.02007
2022-08-21T21:04:00.775Z,150.02007
2022-08-21T21:09:02.501Z,150.71141
2022-08-21T21:14:03.484Z,150.71141
2022-08-21T21:19:04.421Z,150.71141
2022-08-21T21:24:05.340Z,150.71141
2022-08-21T21:29:10.595Z,151.40741
